createdAt,value
2018-09-17T00:02:22.729Z,13.53
2018-09-17T00:07:26.621Z,10.63
2018-09-17T00:12:30.183Z,11.23
2018-09-17T00:17:34.186Z,9.30
2018-09-17T00:22:37.677Z,12.03
2018-09-17T00:27:41.336Z,9.23
2018-09-17T00:32:44.966Z,6.27
2018-09-17T00:37:48.647Z,19.20
2018-09-17T00:42:52.402Z,9.53
2018-09-17T00:47:55.863Z,10.53
2018-09-17T00:52:59.549Z,16.87
2018-09-17T00:58:02.974Z,15.97
2018-09-17T01:03:06.839Z,11.93
2018-09-17T01:08:10.440Z,11.90
2018-09-17T01:13:14.114Z,7.03
2018-09-17T01:18:17.721Z,11.30
2018-09-17T01:23:21.348Z,16.20
2018-09-17T01:28:24.951Z,12.60
2018-09-17T01:33:28.584Z,10.93
2018-09-17T01:38:32.178Z,14.83
2018-09-17T01:43:36.053Z,15.90
2018-09-17T01:48:39.751Z,7.87
2018-09-17T01:53:43.490Z,14.17
2018-09-17T01:58:47.738Z,13.00
2018-09-17T02:03:51.322Z,6.60
2018-09-17T02:08:55.175Z,12.67
2018-09-17T02:13:58.918Z,9.83
2018-09-17T02:19:02.570Z,7.83
2018-09-17T02:24:06.414Z,5.97
2018-09-17T02:29:09.879Z,12.10
2018-09-17T02:34:13.431Z,11.63
2018-09-17T02:39:17.197Z,15.30
2018-09-17T02:44:21.226Z,6.07
2018-09-17T02:49:25.045Z,13.20
2018-09-17T02:54:28.534Z,23.63
2018-09-17T02:59:32.142Z,10.10
2018-09-17T03:04:42.175Z,10.27
2018-09-17T03:09:46.283Z,13.63
2018-09-17T03:14:50.119Z,14.73
2018-09-17T03:19:53.874Z,13.03
2018-09-17T03:24:57.519Z,7.83
2018-09-17T03:30:00.895Z,10.77
2018-09-17T03:35:05.086Z,16.93
2018-09-17T03:40:08.756Z,18.40
2018-09-17T03:45:12.252Z,16.50
2018-09-17T03:50:16.094Z,16.50
2018-09-17T03:55:19.520Z,16.87
2018-09-17T04:00:23.282Z,15.40
2018-09-17T04:05:26.678Z,13.73
2018-09-17T04:10:30.084Z,20.13
2018-09-17T04:15:33.452Z,21.77
2018-09-17T04:20:36.893Z,14.20
2018-09-17T04:25:40.310Z,18.00
2018-09-17T04:30:43.696Z,17.90
2018-09-17T04:35:47.393Z,14.33
2018-09-17T04:40:50.990Z,25.63
2018-09-17T04:45:54.512Z,25.17
2018-09-17T04:50:58.135Z,26.80
2018-09-17T04:56:01.559Z,29.63
2018-09-17T05:01:05.154Z,17.27
2018-09-17T05:06:09.561Z,17.43
2018-09-17T05:11:19.027Z,16.30
2018-09-17T05:16:23.326Z,12.83
2018-09-17T05:21:26.769Z,16.67
2018-09-17T05:26:30.194Z,20.73
2018-09-17T05:31:34.058Z,21.93
2018-09-17T05:36:37.535Z,30.40
2018-09-17T05:41:40.966Z,25.20
2018-09-17T05:46:44.379Z,35.73
2018-09-17T05:51:47.846Z,24.40
2018-09-17T05:56:51.286Z,29.93
2018-09-17T06:01:54.715Z,21.80
2018-09-17T06:06:58.232Z,21.03
2018-09-17T06:12:01.656Z,19.40
2018-09-17T06:17:05.124Z,29.00
2018-09-17T06:22:08.518Z,29.60
2018-09-17T06:27:12.015Z,13.70
2018-09-17T06:32:15.395Z,23.53
2018-09-17T06:37:18.826Z,35.13
2018-09-17T06:42:22.218Z,17.93
2018-09-17T06:47:25.610Z,18.27
2018-09-17T06:52:29.090Z,20.63
2018-09-17T06:57:32.526Z,24.40
2018-09-17T07:02:36.098Z,18.47
2018-09-17T07:07:39.632Z,24.23
2018-09-17T07:12:43.132Z,21.00
2018-09-17T07:17:46.555Z,27.03
2018-09-17T07:22:50.913Z,23.30
2018-09-17T07:27:54.675Z,29.30
2018-09-17T07:32:58.224Z,20.30
2018-09-17T07:38:01.852Z,18.40
2018-09-17T07:43:05.567Z,23.93
2018-09-17T07:48:09.166Z,25.40
2018-09-17T07:53:12.759Z,18.80
2018-09-17T07:58:16.353Z,24.80
2018-09-17T08:03:20.109Z,19.13
2018-09-17T08:08:24.045Z,20.30
2018-09-17T08:13:27.752Z,35.37
2018-09-17T08:18:31.225Z,20.77
2018-09-17T08:23:35.110Z,25.70
2018-09-17T08:28:38.685Z,21.63
2018-09-17T08:33:51.754Z,22.23
2018-09-17T08:38:57.148Z,30.10
2018-09-17T08:44:01.440Z,31.13
2018-09-17T08:49:05.032Z,18.40
2018-09-17T08:54:08.793Z,12.77
2018-09-17T08:59:17.774Z,14.10
2018-09-17T09:04:26.134Z,23.03
2018-09-17T09:09:29.578Z,11.63
2018-09-17T09:14:38.348Z,26.70
2018-09-17T09:19:42.088Z,42.93
2018-09-17T09:24:45.779Z,25.20
2018-09-17T09:29:50.688Z,12.77
2018-09-17T09:34:54.395Z,25.73
2018-09-17T09:39:58.183Z,16.87
2018-09-17T09:45:01.785Z,30.10
2018-09-17T09:50:05.361Z,30.67
2018-09-17T09:55:09.914Z,28.57
2018-09-17T10:00:20.132Z,20.77
2018-09-17T10:05:24.765Z,19.10
2018-09-17T10:10:33.677Z,16.13
2018-09-17T10:15:42.544Z,24.27
2018-09-17T10:20:46.291Z,17.03
2018-09-17T10:25:50.074Z,23.63
2018-09-17T10:30:53.861Z,21.73
2018-09-17T10:35:57.413Z,17.33
2018-09-17T10:41:00.871Z,17.80
2018-09-17T10:46:04.288Z,20.87
2018-09-17T10:51:07.769Z,14.03
2018-09-17T10:56:11.367Z,17.10
2018-09-17T11:01:14.942Z,19.03
2018-09-17T11:06:18.723Z,17.57
2018-09-17T11:11:29.254Z,20.50
2018-09-17T11:16:53.511Z,20.20
2018-09-17T11:22:00.811Z,26.33
2018-09-17T11:27:04.324Z,26.47
2018-09-17T11:32:08.241Z,19.60
2018-09-17T11:37:11.776Z,14.30
2018-09-17T11:42:15.187Z,18.57
2018-09-17T11:47:18.835Z,23.43
2018-09-17T11:52:23.026Z,24.10
2018-09-17T11:57:28.371Z,17.20
2018-09-17T12:02:35.889Z,17.87
2018-09-17T12:07:42.088Z,18.80
2018-09-17T12:12:47.759Z,18.30
2018-09-17T12:17:53.630Z,17.50
2018-09-17T12:22:57.462Z,13.57
2018-09-17T12:28:01.047Z,27.77
2018-09-17T12:33:04.537Z,24.73
2018-09-17T12:38:08.143Z,11.80
2018-09-17T12:43:11.557Z,36.87
2018-09-17T12:48:15.309Z,25.87
2018-09-17T12:53:18.956Z,27.90
2018-09-17T12:58:22.458Z,21.97
2018-09-17T13:03:26.021Z,20.10
2018-09-17T13:08:29.402Z,13.77
2018-09-17T13:13:32.827Z,27.37
2018-09-17T13:18:36.356Z,23.27
2018-09-17T13:23:40.164Z,14.90
2018-09-17T13:28:43.641Z,13.57
2018-09-17T13:33:47.247Z,24.80
2018-09-17T13:38:50.927Z,15.37
2018-09-17T13:43:54.365Z,11.47
2018-09-17T13:48:57.886Z,23.60
2018-09-17T13:54:01.357Z,13.50
2018-09-17T13:59:04.839Z,12.53
2018-09-17T14:04:08.292Z,16.17
2018-09-17T14:09:12.588Z,14.23
2018-09-17T14:14:16.048Z,16.47
2018-09-17T14:19:19.581Z,13.57
2018-09-17T14:24:29.910Z,15.67
2018-09-17T14:29:41.901Z,18.47
2018-09-17T14:34:46.512Z,13.57
2018-09-17T14:39:50.001Z,13.27
2018-09-17T14:44:53.541Z,20.70
2018-09-17T14:49:57.386Z,15.70
2018-09-17T14:55:02.145Z,16.93
2018-09-17T15:00:05.727Z,16.10
2018-09-17T15:05:09.157Z,17.70
2018-09-17T15:10:17.567Z,17.47
2018-09-17T15:15:23.675Z,19.37
2018-09-17T15:20:28.490Z,12.60
2018-09-17T15:25:31.979Z,13.20
2018-09-17T15:30:35.490Z,24.00
2018-09-17T15:35:39.020Z,26.37
2018-09-17T15:40:42.532Z,23.43
2018-09-17T15:45:46.710Z,22.53
2018-09-17T15:50:50.992Z,22.37
2018-09-17T15:55:54.879Z,23.40
2018-09-17T16:01:04.976Z,25.30
2018-09-17T16:06:09.737Z,27.23
2018-09-17T16:11:13.403Z,28.33
2018-09-17T16:16:17.731Z,38.37
2018-09-17T16:21:24.286Z,32.07
2018-09-17T16:26:29.437Z,36.10
2018-09-17T16:31:33.207Z,40.60
2018-09-17T16:36:37.108Z,42.07
2018-09-17T16:41:45.564Z,40.50
2018-09-17T16:46:50.283Z,51.67
2018-09-17T17:01:30.871Z,56.97
2018-09-17T17:06:35.266Z,67.97
2018-09-17T17:11:38.965Z,55.60
2018-09-17T17:16:42.719Z,62.43
2018-09-17T17:21:46.799Z,59.50
2018-09-17T17:26:51.386Z,58.63
2018-09-17T17:31:56.302Z,70.17
2018-09-17T17:37:05.208Z,61.00
2018-09-17T17:42:10.196Z,66.83
2018-09-17T17:47:14.487Z,28.17
2018-09-17T17:52:20.741Z,26.37
2018-09-17T17:57:26.445Z,19.73
2018-09-17T18:02:31.595Z,19.53
2018-09-17T18:07:36.961Z,19.33
2018-09-17T18:12:45.075Z,37.17
2018-09-17T18:17:50.477Z,56.63
2018-09-17T18:22:55.102Z,45.57
2018-09-17T18:28:00.954Z,22.20
2018-09-17T18:33:06.283Z,18.77
2018-09-17T18:38:13.430Z,19.73
2018-09-17T18:43:23.415Z,34.00
2018-09-17T18:48:27.810Z,17.23
2018-09-17T18:53:35.435Z,20.13
2018-09-17T18:58:41.904Z,18.93
2018-09-17T19:03:48.082Z,20.13
2018-09-17T19:08:54.750Z,14.67
2018-09-17T19:14:07.232Z,23.90
2018-09-17T19:19:13.825Z,36.13
2018-09-17T19:24:21.854Z,30.27
2018-09-17T19:29:33.939Z,27.83
2018-09-17T19:34:39.866Z,23.57
2018-09-17T19:39:50.246Z,21.60
2018-09-17T19:45:02.060Z,28.70
2018-09-17T19:50:13.661Z,15.63
2018-09-17T19:55:19.766Z,18.37
2018-09-17T20:00:30.091Z,26.80
2018-09-17T20:05:43.277Z,22.33
2018-09-17T20:10:56.305Z,22.80
2018-09-17T20:16:02.602Z,21.93
2018-09-17T20:21:07.848Z,22.50
2018-09-17T20:33:10.587Z,21.90
2018-09-17T20:38:16.061Z,38.93
2018-09-17T20:43:21.822Z,17.90
2018-09-17T20:48:32.032Z,17.93
2018-09-17T20:53:38.631Z,25.93
2018-09-17T20:58:48.002Z,29.10
2018-09-17T21:04:01.135Z,30.53
2018-09-17T21:09:08.000Z,41.33
2018-09-17T21:30:43.334Z,26.23
2018-09-17T21:35:48.836Z,30.50
2018-09-17T21:40:53.356Z,19.37
2018-09-17T21:45:58.375Z,17.73
2018-09-17T21:51:03.029Z,20.13
2018-09-17T21:56:07.063Z,19.60
2018-09-17T22:01:12.226Z,23.03
2018-09-17T22:06:17.732Z,26.10
2018-09-17T22:11:21.545Z,29.67
2018-09-17T22:16:25.085Z,26.13
2018-09-17T22:26:40.932Z,25.87
2018-09-17T22:31:48.541Z,31.40
2018-09-17T22:36:53.019Z,34.73
2018-09-17T22:41:56.921Z,35.23
2018-09-17T22:47:00.700Z,35.47
2018-09-17T22:52:04.633Z,25.10
2018-09-17T22:57:08.674Z,35.90
2018-09-17T23:02:12.875Z,27.03
2018-09-17T23:07:20.857Z,23.60
2018-09-17T23:12:24.886Z,24.03
2018-09-17T23:17:28.839Z,31.67
2018-09-17T23:22:32.447Z,22.27
2018-09-17T23:27:36.262Z,19.30
2018-09-17T23:32:40.279Z,22.03
2018-09-17T23:37:44.514Z,28.40
2018-09-17T23:42:48.069Z,26.10
2018-09-17T23:47:51.857Z,27.90
2018-09-17T23:52:55.628Z,22.63
2018-09-17T23:57:59.309Z,31.90
